Quincy, Florida
Current Conditions -  °F | °C
As of 4:35 AM on Monday 24 Nov 2014 (Local Time) from K2J9 Reporting Station
Overcast Overcast  
Wind Chill: 70°   Ceiling: 300
Heat Index: 70°   Visibility: 7mi
Dew Point: 70°   Wind: 9mph
Humidity: 100%   Direction: 200°SSW
Pressure: 29.83"   Gusts: NA
Location:  30.59°N, 84.58°W
Report Text: K2J9 240935Z AUTO 20008KT 7SM OVC003 21/21 A2983 RMK AO1 P0080
Loading
Personal Weather Stations






























Interactive Weather Map New forecast layout! Learn more

10-Day Weather Forecast

Advertisements
Track Severe Weather on mobile